Time;durP1;ratioP1;P1;durP2;ratioP2;P2;SDS_P1;SDS_P2;PMS_P1;PMS_P2;Temp;Humidity;BMP_temperature;BMP_pressure;BME280_temperature;BME280_humidity;BME280_pressure;Samples;Min_cycle;Max_cycle;Signal;HPM_P1;HPM_P2
2022/12/22 03:26:37;;;;;;;3.73;2.53;;;;;;;;;;5000431;28;20171;-74
2022/12/22 03:29:04;;;;;;;4.30;2.50;;;;;;;;;;5003729;28;20759;-73
2022/12/22 03:31:30;;;;;;;3.93;2.43;;;;;;;;;;5011863;28;20615;-73
2022/12/22 03:33:56;;;;;;;3.40;2.63;;;;;;;;;;5000641;28;20182;-73
2022/12/22 03:36:22;;;;;;;5.17;2.50;;;;;;;;;;4995733;28;20243;-74
2022/12/22 03:38:48;;;;;;;4.47;2.27;;;;;;;;;;5003536;28;20269;-73
2022/12/22 03:46:44;;;;;;;4.57;2.40;;;;;;;;;;5005094;28;20313;-73
2022/12/22 03:49:11;;;;;;;3.20;2.37;;;;;;;;;;4995872;28;20194;-73
2022/12/22 03:51:39;;;;;;;6.90;2.50;;;;;;;;;;5004618;28;20302;-74
2022/12/22 03:54:05;;;;;;;5.57;2.27;;;;;;;;;;4995914;28;20183;-73
2022/12/22 03:56:32;;;;;;;4.70;2.30;;;;;;;;;;4995576;28;20257;-74
2022/12/22 03:58:58;;;;;;;5.57;2.13;;;;;;;;;;5001485;28;20713;-74
2022/12/22 04:01:24;;;;;;;2.60;2.03;;;;;;;;;;5003982;28;20223;-76
2022/12/22 04:03:50;;;;;;;3.63;2.30;;;;;;;;;;4995985;28;20195;-73
2022/12/22 04:06:17;;;;;;;4.10;2.17;;;;;;;;;;5006183;28;20176;-74
2022/12/22 04:08:43;;;;;;;4.63;2.30;;;;;;;;;;5003280;28;20191;-74
2022/12/22 04:13:56;;;;;;;2.80;2.00;;;;;;;;;;5002713;28;20187;-73
2022/12/22 04:16:22;;;;;;;3.60;2.10;;;;;;;;;;4997348;28;20202;-73
2022/12/22 04:18:48;;;;;;;3.13;2.27;;;;;;;;;;5000268;28;20650;-74
2022/12/22 04:21:14;;;;;;;4.13;2.57;;;;;;;;;;4995352;28;20315;-75
2022/12/22 04:23:40;;;;;;;4.20;2.17;;;;;;;;;;4997502;28;20214;-75
2022/12/22 04:26:07;;;;;;;2.60;2.10;;;;;;;;;;4997590;28;20219;-75
2022/12/22 04:28:33;;;;;;;5.97;4.10;;;;;;;;;;5001175;28;20940;-74
2022/12/22 04:30:59;;;;;;;3.40;2.27;;;;;;;;;;5006762;28;20207;-73
2022/12/22 04:33:25;;;;;;;2.83;2.00;;;;;;;;;;5005495;28;20509;-76
2022/12/22 04:35:51;;;;;;;3.30;2.13;;;;;;;;;;5008426;28;20183;-75
2022/12/22 04:38:17;;;;;;;5.70;2.30;;;;;;;;;;5013931;28;20245;-74
2022/12/22 04:40:43;;;;;;;3.77;2.27;;;;;;;;;;5005574;28;20667;-73
2022/12/22 04:43:10;;;;;;;4.93;2.10;;;;;;;;;;5002685;28;20234;-73
2022/12/22 04:45:36;;;;;;;2.67;2.00;;;;;;;;;;5007511;28;20656;-74
2022/12/22 04:48:02;;;;;;;4.57;2.47;;;;;;;;;;5005994;28;20876;-75
2022/12/22 04:50:28;;;;;;;4.13;2.30;;;;;;;;;;5000792;28;20179;-74
2022/12/22 04:52:54;;;;;;;3.47;2.10;;;;;;;;;;5007867;28;20207;-74
2022/12/22 04:55:20;;;;;;;5.03;1.97;;;;;;;;;;5003703;28;20230;-73
2022/12/22 04:57:46;;;;;;;3.73;2.17;;;;;;;;;;5011919;28;20178;-73
2022/12/22 05:00:13;;;;;;;4.33;1.80;;;;;;;;;;5009010;28;20210;-73
2022/12/22 05:02:39;;;;;;;3.20;1.87;;;;;;;;;;5007394;28;20195;-73
2022/12/22 05:05:06;;;;;;;3.00;2.10;;;;;;;;;;5005933;28;20175;-73
2022/12/22 05:07:32;;;;;;;3.87;2.10;;;;;;;;;;5010465;28;20187;-75
2022/12/22 05:09:58;;;;;;;3.93;1.90;;;;;;;;;;5007667;28;20318;-74
2022/12/22 05:15:09;;;;;;;2.97;2.10;;;;;;;;;;4995831;28;20179;-74
2022/12/22 05:17:35;;;;;;;3.77;1.83;;;;;;;;;;5006387;28;20186;-74
2022/12/22 05:20:02;;;;;;;3.97;1.97;;;;;;;;;;5011277;28;20261;-73
2022/12/22 05:22:28;;;;;;;3.40;1.77;;;;;;;;;;4996686;28;20191;-73
2022/12/22 05:24:54;;;;;;;4.53;2.17;;;;;;;;;;5006677;28;20219;-73
2022/12/22 05:27:20;;;;;;;3.90;1.80;;;;;;;;;;5009901;28;20194;-74
2022/12/22 05:29:46;;;;;;;4.57;1.93;;;;;;;;;;5006113;28;20184;-74
2022/12/22 05:32:13;;;;;;;4.63;1.80;;;;;;;;;;5005282;28;20207;-73
2022/12/22 05:34:39;;;;;;;4.13;1.70;;;;;;;;;;5015998;28;20693;-73
2022/12/22 05:37:05;;;;;;;5.93;1.97;;;;;;;;;;5008925;28;20194;-76
2022/12/22 05:39:31;;;;;;;4.27;1.87;;;;;;;;;;5003680;28;20206;-75
2022/12/22 05:41:57;;;;;;;5.03;2.00;;;;;;;;;;5007836;28;20219;-74
2022/12/22 05:44:23;;;;;;;3.47;1.77;;;;;;;;;;4999272;28;20191;-75
2022/12/22 05:46:51;;;;;;;4.00;2.03;;;;;;;;;;5004893;28;20210;-77
2022/12/22 05:49:17;;;;;;;5.53;1.80;;;;;;;;;;5022661;28;20176;-75
2022/12/22 05:51:43;;;;;;;2.90;1.70;;;;;;;;;;5007609;28;20277;-73
2022/12/22 05:54:09;;;;;;;3.03;2.00;;;;;;;;;;5001269;28;20175;-73
2022/12/22 05:56:36;;;;;;;5.40;1.87;;;;;;;;;;4994842;28;20188;-74
2022/12/22 05:59:02;;;;;;;3.83;1.70;;;;;;;;;;5006385;28;20234;-74
2022/12/22 06:01:29;;;;;;;6.23;2.00;;;;;;;;;;5009104;28;20219;-73
2022/12/22 06:03:55;;;;;;;3.83;1.97;;;;;;;;;;5003411;28;20214;-73
2022/12/22 06:06:21;;;;;;;3.30;2.10;;;;;;;;;;5003077;28;20225;-73
2022/12/22 06:08:47;;;;;;;6.22;3.08;;;;;;;;;;5017164;28;20465;-75
2022/12/22 06:11:17;;;;;;;5.77;2.10;;;;;;;;;;5001401;28;20674;-74
2022/12/22 06:13:43;;;;;;;4.20;2.10;;;;;;;;;;5008168;28;20601;-73
2022/12/22 06:16:09;;;;;;;3.73;1.97;;;;;;;;;;4991591;28;20184;-73
2022/12/22 06:18:36;;;;;;;3.67;1.80;;;;;;;;;;4973630;28;20199;-73
2022/12/22 06:21:02;;;;;;;6.17;2.03;;;;;;;;;;5002654;28;20210;-73
2022/12/22 06:23:29;;;;;;;4.23;1.80;;;;;;;;;;4997154;28;20296;-74
2022/12/22 06:25:55;;;;;;;4.43;1.80;;;;;;;;;;4998864;28;20190;-74
2022/12/22 06:28:22;;;;;;;4.63;1.67;;;;;;;;;;4999787;28;20187;-73
2022/12/22 06:30:48;;;;;;;4.07;2.00;;;;;;;;;;5007554;28;20187;-74
2022/12/22 06:33:14;;;;;;;4.63;1.67;;;;;;;;;;5011742;28;20206;-74
2022/12/22 06:35:40;;;;;;;5.40;1.70;;;;;;;;;;5014029;28;20178;-74
2022/12/22 06:38:07;;;;;;;3.77;1.60;;;;;;;;;;5008624;28;20195;-73
2022/12/22 06:40:33;;;;;;;5.27;1.90;;;;;;;;;;5012291;28;20250;-74
2022/12/22 06:43:08;;;;;;;4.45;2.00;;;;;;;;;;5006102;28;20424;-74
2022/12/22 06:45:34;;;;;;;6.60;2.23;;;;;;;;;;5004213;28;20253;-72
2022/12/22 06:48:01;;;;;;;4.87;2.00;;;;;;;;;;5002693;28;20210;-71
2022/12/22 06:50:27;;;;;;;5.50;2.10;;;;;;;;;;5005573;28;20454;-72
2022/12/22 06:52:53;;;;;;;5.77;1.97;;;;;;;;;;4998114;28;20282;-72
2022/12/22 06:55:19;;;;;;;6.53;1.77;;;;;;;;;;4996988;28;20187;-72
2022/12/22 06:57:45;;;;;;;9.07;1.80;;;;;;;;;;5011267;28;20190;-72
2022/12/22 07:00:12;;;;;;;5.17;1.80;;;;;;;;;;5006866;28;20191;-71
2022/12/22 07:02:38;;;;;;;4.87;1.80;;;;;;;;;;5003825;28;20252;-72
2022/12/22 07:05:04;;;;;;;4.93;1.73;;;;;;;;;;5003449;28;20183;-72
2022/12/22 07:07:31;;;;;;;7.30;1.97;;;;;;;;;;5008318;28;20266;-71
2022/12/22 07:09:57;;;;;;;8.00;1.87;;;;;;;;;;4998785;28;20337;-71
2022/12/22 07:12:23;;;;;;;7.80;2.30;;;;;;;;;;5020587;28;20200;-71
2022/12/22 07:14:49;;;;;;;6.93;1.90;;;;;;;;;;4995078;28;20183;-71
2022/12/22 07:17:16;;;;;;;8.13;2.30;;;;;;;;;;4998670;28;20184;-71
2022/12/22 07:19:42;;;;;;;5.53;2.07;;;;;;;;;;5003474;28;20182;-72
2022/12/22 07:22:09;;;;;;;6.40;2.20;;;;;;;;;;5000579;28;20225;-77
2022/12/22 07:24:35;;;;;;;6.60;2.20;;;;;;;;;;5006030;28;20187;-73
2022/12/22 07:27:01;;;;;;;6.60;2.03;;;;;;;;;;4996061;28;20439;-75
2022/12/22 07:29:27;;;;;;;9.53;3.10;;;;;;;;;;4999116;28;20179;-76
2022/12/22 07:31:53;;;;;;;10.03;2.77;;;;;;;;;;4997975;28;20207;-76
2022/12/22 07:34:19;;;;;;;5.83;2.60;;;;;;;;;;5000166;28;20201;-74
2022/12/22 07:36:46;;;;;;;13.43;3.20;;;;;;;;;;4998448;28;20250;-74
2022/12/22 07:39:12;;;;;;;7.97;2.73;;;;;;;;;;4996852;28;20828;-75
2022/12/22 07:44:24;;;;;;;6.47;2.00;;;;;;;;;;5000942;28;20211;-76
2022/12/22 07:46:50;;;;;;;6.83;2.17;;;;;;;;;;5007292;28;20190;-75
2022/12/22 07:52:01;;;;;;;10.33;2.00;;;;;;;;;;5000820;28;20219;-75
2022/12/22 07:54:27;;;;;;;6.23;2.00;;;;;;;;;;5001174;28;20172;-75
2022/12/22 07:56:54;;;;;;;5.57;2.00;;;;;;;;;;4997469;28;20195;-75
2022/12/22 07:59:20;;;;;;;6.80;1.90;;;;;;;;;;5001585;28;20838;-76
2022/12/22 08:01:47;;;;;;;8.20;2.17;;;;;;;;;;5007284;28;20678;-74
2022/12/22 08:04:13;;;;;;;7.10;2.20;;;;;;;;;;5003944;28;20194;-74
2022/12/22 08:06:40;;;;;;;6.93;1.97;;;;;;;;;;4995401;28;20184;-74
2022/12/22 08:09:06;;;;;;;6.60;2.27;;;;;;;;;;5000796;28;20555;-75
2022/12/22 08:11:33;;;;;;;6.27;2.20;;;;;;;;;;5010003;28;20206;-75
2022/12/22 08:13:59;;;;;;;6.93;1.87;;;;;;;;;;5001162;28;20215;-75
2022/12/22 08:16:25;;;;;;;6.13;2.30;;;;;;;;;;5004383;28;20193;-74
2022/12/22 08:18:51;;;;;;;8.23;2.03;;;;;;;;;;5003454;28;20191;-74
2022/12/22 08:21:18;;;;;;;8.57;2.30;;;;;;;;;;4999691;28;20211;-74
2022/12/22 08:23:44;;;;;;;5.50;2.00;;;;;;;;;;5004272;28;20180;-75
2022/12/22 08:26:26;;;;;;;5.83;1.77;;;;;;;;;;4996117;28;20186;-75
2022/12/22 08:29:02;;;;;;;6.53;2.00;;;;;;;;;;5004662;28;20206;-75
2022/12/22 08:31:28;;;;;;;4.80;1.93;;;;;;;;;;4998675;28;20199;-75
2022/12/22 08:33:55;;;;;;;6.23;2.10;;;;;;;;;;5001581;28;20187;-74
2022/12/22 08:36:21;;;;;;;6.10;1.90;;;;;;;;;;5001045;28;20197;-75
2022/12/22 08:38:48;;;;;;;9.53;2.23;;;;;;;;;;5001261;28;20257;-75
2022/12/22 08:41:15;;;;;;;6.93;2.00;;;;;;;;;;5000537;28;20214;-77
2022/12/22 08:43:41;;;;;;;7.63;2.30;;;;;;;;;;5003652;28;21391;-74
2022/12/22 08:46:07;;;;;;;7.83;2.20;;;;;;;;;;5008089;28;20187;-74
2022/12/22 08:48:33;;;;;;;7.77;2.33;;;;;;;;;;4999505;28;20396;-75
2022/12/22 08:51:00;;;;;;;8.07;2.00;;;;;;;;;;5001078;28;20215;-76
2022/12/22 08:53:26;;;;;;;7.87;2.30;;;;;;;;;;5000178;28;20176;-76
2022/12/22 08:55:52;;;;;;;13.73;3.43;;;;;;;;;;5001968;28;20202;-75
2022/12/22 08:58:19;;;;;;;6.70;2.93;;;;;;;;;;5001293;28;20189;-74
2022/12/22 09:00:45;;;;;;;13.70;2.93;;;;;;;;;;5001970;28;20289;-75
2022/12/22 09:03:12;;;;;;;10.17;2.50;;;;;;;;;;5003708;28;20187;-75
2022/12/22 09:05:38;;;;;;;10.27;2.57;;;;;;;;;;5003814;28;20269;-75
2022/12/22 09:08:05;;;;;;;8.83;2.53;;;;;;;;;;4998188;28;20492;-76
2022/12/22 09:10:31;;;;;;;9.77;2.40;;;;;;;;;;5003745;28;20183;-76
2022/12/22 09:12:57;;;;;;;10.83;2.97;;;;;;;;;;5003270;28;20179;-75
2022/12/22 09:15:24;;;;;;;10.50;3.53;;;;;;;;;;5000159;28;20584;-75
2022/12/22 09:17:50;;;;;;;13.87;2.93;;;;;;;;;;5002953;28;20191;-75
2022/12/22 09:20:16;;;;;;;10.30;2.83;;;;;;;;;;5000037;28;20897;-75
2022/12/22 09:22:42;;;;;;;10.07;2.87;;;;;;;;;;4989718;28;20298;-75
2022/12/22 09:25:09;;;;;;;10.60;2.57;;;;;;;;;;4998953;28;20899;-75
2022/12/22 09:27:35;;;;;;;10.87;2.67;;;;;;;;;;4997388;28;20659;-75
2022/12/22 09:30:02;;;;;;;12.03;4.97;;;;;;;;;;4997441;28;20184;-75
2022/12/22 09:32:28;;;;;;;14.20;3.03;;;;;;;;;;4999552;28;20499;-75
2022/12/22 09:34:54;;;;;;;11.80;2.80;;;;;;;;;;5006968;28;20199;-75
2022/12/22 09:37:20;;;;;;;12.23;3.07;;;;;;;;;;5002539;28;20196;-75
2022/12/22 09:39:47;;;;;;;10.30;2.97;;;;;;;;;;5003597;28;20206;-75
2022/12/22 09:42:15;;;;;;;8.67;2.80;;;;;;;;;;5004882;28;20261;-76
2022/12/22 09:44:43;;;;;;;10.57;2.53;;;;;;;;;;4999511;28;20163;-75
2022/12/22 09:47:30;;;;;;;9.93;2.47;;;;;;;;;;5000292;28;20656;-76
2022/12/22 09:49:57;;;;;;;8.43;2.30;;;;;;;;;;5004003;28;20606;-75
2022/12/22 09:52:25;;;;;;;10.13;2.60;;;;;;;;;;5005906;28;20195;-75
2022/12/22 09:54:51;;;;;;;9.77;2.37;;;;;;;;;;5005118;28;20741;-77
2022/12/22 09:57:17;;;;;;;9.30;2.47;;;;;;;;;;4999796;28;20248;-75
2022/12/22 09:59:44;;;;;;;10.23;2.67;;;;;;;;;;5003767;28;20222;-75
2022/12/22 10:02:10;;;;;;;6.60;2.00;;;;;;;;;;4998720;28;20211;-76
2022/12/22 10:04:39;;;;;;;9.77;2.43;;;;;;;;;;5001522;28;20202;-77
2022/12/22 10:07:05;;;;;;;6.20;2.20;;;;;;;;;;4979344;28;20192;-75
2022/12/22 10:09:32;;;;;;;8.13;2.27;;;;;;;;;;5001542;28;20171;-74
2022/12/22 10:12:02;;;;;;;8.10;2.20;;;;;;;;;;5002521;28;20226;-74
2022/12/22 10:14:36;;;;;;;9.27;2.37;;;;;;;;;;4998479;28;20194;-75
2022/12/22 10:17:20;;;;;;;9.33;2.07;;;;;;;;;;4999666;28;20214;-75
2022/12/22 10:19:46;;;;;;;7.67;1.80;;;;;;;;;;5001478;28;20194;-75
2022/12/22 10:22:25;;;;;;;6.30;2.27;;;;;;;;;;4996623;28;20226;-76
2022/12/22 10:24:52;;;;;;;5.07;2.10;;;;;;;;;;4996183;28;20187;-75
2022/12/22 10:27:18;;;;;;;7.10;2.40;;;;;;;;;;4995482;28;20206;-74
2022/12/22 10:29:44;;;;;;;6.73;2.10;;;;;;;;;;4997049;28;20233;-75
2022/12/22 10:32:12;;;;;;;4.73;1.70;;;;;;;;;;4997779;28;20211;-75
2022/12/22 10:34:57;;;;;;;5.97;1.67;;;;;;;;;;5002580;28;20843;-75
2022/12/22 10:37:30;;;;;;;3.37;1.47;;;;;;;;;;4998987;28;20314;-76
2022/12/22 10:39:56;;;;;;;2.77;1.13;;;;;;;;;;4997795;28;20199;-75
2022/12/22 10:42:22;;;;;;;3.37;1.40;;;;;;;;;;5000111;28;20224;-75
2022/12/22 10:44:49;;;;;;;5.13;1.20;;;;;;;;;;4997589;28;20175;-75
2022/12/22 10:47:22;;;;;;;2.43;1.10;;;;;;;;;;4998896;28;20195;-74
2022/12/22 10:49:56;;;;;;;1.77;0.90;;;;;;;;;;5001157;28;20328;-75
2022/12/22 10:52:22;;;;;;;2.00;1.00;;;;;;;;;;4999345;28;20207;-75
2022/12/22 10:54:48;;;;;;;1.67;0.90;;;;;;;;;;4998368;28;20179;-76
2022/12/22 10:57:15;;;;;;;1.33;0.90;;;;;;;;;;5002494;28;20191;-75
2022/12/22 10:59:55;;;;;;;2.33;1.00;;;;;;;;;;4999131;28;20188;-75
2022/12/22 11:02:22;;;;;;;2.93;1.10;;;;;;;;;;4996084;28;20265;-75
2022/12/22 11:04:49;;;;;;;3.47;1.20;;;;;;;;;;5001610;28;20184;-76
2022/12/22 11:07:15;;;;;;;1.57;1.07;;;;;;;;;;5000693;28;20569;-75
2022/12/22 11:09:41;;;;;;;4.23;1.03;;;;;;;;;;4998204;28;20553;-75
2022/12/22 11:12:07;;;;;;;3.80;1.17;;;;;;;;;;5007434;28;20217;-75
2022/12/22 11:14:34;;;;;;;2.70;1.10;;;;;;;;;;5001341;28;20221;-75
2022/12/22 11:17:12;;;;;;;3.50;1.10;;;;;;;;;;4999150;28;20196;-75
2022/12/22 11:19:47;;;;;;;3.93;1.10;;;;;;;;;;5008306;28;20183;-75
2022/12/22 11:22:31;;;;;;;2.37;1.20;;;;;;;;;;5005147;28;20238;-75
2022/12/22 11:25:09;;;;;;;1.77;0.93;;;;;;;;;;4998687;28;20187;-76
2022/12/22 11:27:48;;;;;;;1.30;0.80;;;;;;;;;;4997338;28;20215;-75
2022/12/22 11:30:18;;;;;;;1.53;0.83;;;;;;;;;;5003359;28;20179;-75
2022/12/22 11:33:03;;;;;;;2.77;0.97;;;;;;;;;;4999923;28;20707;-75
2022/12/22 11:35:41;;;;;;;1.67;0.80;;;;;;;;;;4997658;28;20195;-75
2022/12/22 11:38:14;;;;;;;1.03;0.80;;;;;;;;;;4998458;28;20918;-75
2022/12/22 11:40:53;;;;;;;1.53;0.80;;;;;;;;;;4998956;28;20687;-75
2022/12/22 11:43:22;;;;;;;5.07;1.13;;;;;;;;;;5001973;28;20179;-76
2022/12/22 11:45:51;;;;;;;1.80;0.90;;;;;;;;;;4997738;28;20181;-75
2022/12/22 11:48:36;;;;;;;2.57;1.03;;;;;;;;;;5001878;28;20730;-75
2022/12/22 11:51:21;;;;;;;1.53;0.77;;;;;;;;;;4997355;28;20641;-74
2022/12/22 11:53:47;;;;;;;2.00;1.07;;;;;;;;;;5000519;28;20199;-75
2022/12/22 11:56:19;;;;;;;1.43;0.83;;;;;;;;;;4980802;28;20267;-77
2022/12/22 11:59:04;;;;;;;2.00;0.93;;;;;;;;;;5004130;28;20226;-77
2022/12/22 12:01:33;;;;;;;3.97;1.03;;;;;;;;;;5002201;28;20239;-75
2022/12/22 12:04:14;;;;;;;1.10;0.70;;;;;;;;;;4998759;28;20553;-75
2022/12/22 12:06:51;;;;;;;1.53;1.00;;;;;;;;;;4998628;28;20604;-74
2022/12/22 12:09:36;;;;;;;1.03;0.80;;;;;;;;;;4996909;28;20880;-73
2022/12/22 12:12:21;;;;;;;1.70;0.90;;;;;;;;;;5002155;28;20206;-73
2022/12/22 12:14:56;;;;;;;2.30;0.90;;;;;;;;;;4999711;28;20632;-74
2022/12/22 12:17:34;;;;;;;3.83;0.80;;;;;;;;;;4998682;28;20196;-73
2022/12/22 12:20:00;;;;;;;2.07;1.50;;;;;;;;;;4998580;28;20195;-73
2022/12/22 12:22:26;;;;;;;1.53;1.30;;;;;;;;;;4994491;28;20274;-73
2022/12/22 12:24:55;;;;;;;1.10;0.80;;;;;;;;;;5002875;28;20248;-74
2022/12/22 12:27:45;;;;;;;1.30;1.00;;;;;;;;;;4996264;28;20196;-73
2022/12/22 12:30:15;;;;;;;1.13;0.93;;;;;;;;;;4999374;28;20679;-74
2022/12/22 12:32:47;;;;;;;2.30;1.10;;;;;;;;;;4999734;28;20204;-74
2022/12/22 12:35:16;;;;;;;2.50;0.90;;;;;;;;;;4998816;28;20183;-73
2022/12/22 12:37:45;;;;;;;1.53;1.10;;;;;;;;;;5001566;28;20267;-74
2022/12/22 12:40:30;;;;;;;3.40;0.90;;;;;;;;;;4981610;28;20196;-73
2022/12/22 12:42:56;;;;;;;1.00;0.90;;;;;;;;;;5002608;28;20239;-73
2022/12/22 12:45:49;;;;;;;2.90;1.20;;;;;;;;;;5004108;28;20667;-73
2022/12/22 12:48:24;;;;;;;1.00;0.90;;;;;;;;;;4995191;28;20202;-74
2022/12/22 12:50:52;;;;;;;1.57;0.80;;;;;;;;;;5001790;28;20234;-73
2022/12/22 12:53:26;;;;;;;1.00;0.70;;;;;;;;;;5005617;28;20179;-73
2022/12/22 12:55:57;;;;;;;0.63;0.63;;;;;;;;;;4997760;28;20187;-74
2022/12/22 12:58:38;;;;;;;1.10;0.70;;;;;;;;;;5002944;28;20173;-73
2022/12/22 13:01:05;;;;;;;0.60;0.60;;;;;;;;;;5000965;28;20208;-73
2022/12/22 13:03:31;;;;;;;0.60;0.60;;;;;;;;;;4997707;28;20206;-73
2022/12/22 13:05:58;;;;;;;1.90;0.70;;;;;;;;;;5001009;28;20188;-73
2022/12/22 13:08:25;;;;;;;0.60;0.60;;;;;;;;;;4999584;28;20179;-75
2022/12/22 13:10:55;;;;;;;0.80;0.80;;;;;;;;;;4999482;28;20995;-73
2022/12/22 13:13:21;;;;;;;0.70;0.60;;;;;;;;;;4999736;28;20238;-73
2022/12/22 13:15:48;;;;;;;1.23;0.80;;;;;;;;;;5001417;28;20298;-74
2022/12/22 13:18:29;;;;;;;1.27;1.07;;;;;;;;;;4999782;28;20176;-73
2022/12/22 13:21:00;;;;;;;1.33;0.80;;;;;;;;;;4997241;28;20211;-73
2022/12/22 13:23:34;;;;;;;2.10;0.73;;;;;;;;;;5002162;28;20323;-73
2022/12/22 13:26:13;;;;;;;1.03;0.73;;;;;;;;;;4998403;28;20171;-73
2022/12/22 13:28:41;;;;;;;1.13;0.80;;;;;;;;;;5000012;28;20179;-73
2022/12/22 13:31:14;;;;;;;1.10;1.00;;;;;;;;;;4998375;28;20211;-73
2022/12/22 13:33:43;;;;;;;2.00;0.90;;;;;;;;;;5000143;28;20662;-73
2022/12/22 13:36:15;;;;;;;1.00;0.80;;;;;;;;;;4999170;28;20313;-73
2022/12/22 13:38:41;;;;;;;0.70;0.70;;;;;;;;;;4998877;28;20292;-74
2022/12/22 13:41:14;;;;;;;3.33;2.13;;;;;;;;;;4997460;28;20746;-74
2022/12/22 13:43:41;;;;;;;3.50;1.70;;;;;;;;;;5000117;28;20184;-73
2022/12/22 13:46:08;;;;;;;1.20;0.90;;;;;;;;;;5000497;28;20188;-74
2022/12/22 13:48:43;;;;;;;1.30;1.10;;;;;;;;;;4999012;28;20195;-73
2022/12/22 13:51:18;;;;;;;2.03;1.20;;;;;;;;;;4997847;28;20195;-73
2022/12/22 13:53:46;;;;;;;2.37;1.20;;;;;;;;;;5000784;28;20188;-73
2022/12/22 13:56:14;;;;;;;3.37;1.10;;;;;;;;;;5002543;28;20175;-74
2022/12/22 13:58:44;;;;;;;2.37;0.90;;;;;;;;;;4999789;28;20192;-73
2022/12/22 14:01:10;;;;;;;4.83;0.80;;;;;;;;;;5002480;28;20211;-74
2022/12/22 14:03:37;;;;;;;1.70;0.90;;;;;;;;;;4996928;28;20191;-74
2022/12/22 14:06:17;;;;;;;1.17;0.70;;;;;;;;;;4997350;28;20183;-73
2022/12/22 14:08:43;;;;;;;1.53;0.90;;;;;;;;;;4996089;28;20204;-73
2022/12/22 14:11:10;;;;;;;1.10;0.87;;;;;;;;;;5002023;28;20234;-73
2022/12/22 14:13:38;;;;;;;1.20;0.80;;;;;;;;;;5001052;28;20202;-73
2022/12/22 14:16:04;;;;;;;1.00;0.70;;;;;;;;;;4997266;28;20263;-73
2022/12/22 14:18:32;;;;;;;2.03;0.67;;;;;;;;;;4997713;28;20238;-73
2022/12/22 14:20:58;;;;;;;2.07;0.70;;;;;;;;;;4999210;28;20218;-73
2022/12/22 14:23:33;;;;;;;2.10;1.90;;;;;;;;;;4999418;28;20172;-73
2022/12/22 14:26:01;;;;;;;1.13;0.93;;;;;;;;;;4998058;28;20782;-73
2022/12/22 14:28:31;;;;;;;0.80;0.80;;;;;;;;;;4998720;28;20697;-73
2022/12/22 14:30:58;;;;;;;0.70;0.70;;;;;;;;;;5001009;28;20207;-74
2022/12/22 14:33:27;;;;;;;1.23;0.90;;;;;;;;;;4997247;28;20188;-73
2022/12/22 14:36:12;;;;;;;1.10;0.70;;;;;;;;;;4999476;28;20191;-74
2022/12/22 14:38:39;;;;;;;2.53;0.93;;;;;;;;;;4998823;28;20272;-73
2022/12/22 14:41:39;;;;;;;2.83;1.10;;;;;;;;;;4997596;28;20211;-73
2022/12/22 14:43:58;;;;;;;1.30;0.93;;;;;;;;;;4998900;28;20704;-74
2022/12/22 14:46:26;;;;;;;0.97;0.83;;;;;;;;;;4997866;28;20179;-74
2022/12/22 14:48:53;;;;;;;1.20;0.90;;;;;;;;;;4998273;28;20223;-73
2022/12/22 14:51:19;;;;;;;0.80;0.80;;;;;;;;;;5000401;28;20206;-74
2022/12/22 14:54:01;;;;;;;1.00;0.90;;;;;;;;;;4996056;28;20722;-73
2022/12/22 14:56:27;;;;;;;3.13;0.90;;;;;;;;;;4997445;28;20210;-75
2022/12/22 14:59:08;;;;;;;1.80;0.93;;;;;;;;;;4995599;28;20905;-74
2022/12/22 15:01:35;;;;;;;1.30;0.90;;;;;;;;;;4997570;28;20231;-73
2022/12/22 15:04:04;;;;;;;1.17;1.00;;;;;;;;;;4999314;28;20242;-73
2022/12/22 15:06:33;;;;;;;1.00;0.90;;;;;;;;;;4994618;28;20183;-73
2022/12/22 15:09:02;;;;;;;2.83;1.20;;;;;;;;;;4996389;28;20667;-74
2022/12/22 15:11:30;;;;;;;1.17;1.07;;;;;;;;;;4997166;28;20223;-75
2022/12/22 15:13:56;;;;;;;1.73;1.20;;;;;;;;;;5001825;28;20222;-74
2022/12/22 15:16:22;;;;;;;3.53;1.67;;;;;;;;;;4994362;28;20180;-74
2022/12/22 15:18:49;;;;;;;2.57;1.87;;;;;;;;;;4996277;28;20176;-76
2022/12/22 15:21:16;;;;;;;3.37;2.23;;;;;;;;;;4998310;28;20216;-73
2022/12/22 15:23:43;;;;;;;2.60;2.00;;;;;;;;;;4999487;28;20191;-72
2022/12/22 15:26:09;;;;;;;3.90;2.57;;;;;;;;;;5007388;28;20183;-75
2022/12/22 15:28:36;;;;;;;4.07;2.70;;;;;;;;;;5013749;28;20190;-72
2022/12/22 15:31:03;;;;;;;5.13;2.97;;;;;;;;;;5016766;28;20206;-73
2022/12/22 15:33:29;;;;;;;5.13;2.87;;;;;;;;;;5019977;28;20194;-75
2022/12/22 15:35:56;;;;;;;5.23;3.80;;;;;;;;;;5005733;28;20474;-74
2022/12/22 15:38:23;;;;;;;3.73;2.17;;;;;;;;;;4995825;28;20714;-73
2022/12/22 15:40:49;;;;;;;3.63;1.93;;;;;;;;;;5007730;28;20199;-75
2022/12/22 15:43:16;;;;;;;3.63;1.73;;;;;;;;;;5002712;28;20253;-73
2022/12/22 15:45:43;;;;;;;3.97;1.77;;;;;;;;;;4994303;28;20183;-73
2022/12/22 15:48:22;;;;;;;3.07;1.50;;;;;;;;;;5012819;28;20179;-75
2022/12/22 15:50:48;;;;;;;3.58;1.60;;;;;;;;;;4992013;28;20495;-75
2022/12/22 15:53:16;;;;;;;3.60;1.60;;;;;;;;;;4998686;28;20297;-74
2022/12/22 15:55:43;;;;;;;2.50;1.60;;;;;;;;;;5001712;28;20175;-77
2022/12/22 15:58:14;;;;;;;4.13;1.50;;;;;;;;;;5008278;28;20281;-73
2022/12/22 16:00:41;;;;;;;4.83;1.63;;;;;;;;;;5003883;28;20183;-76
2022/12/22 16:03:09;;;;;;;4.20;1.90;;;;;;;;;;4998479;28;20183;-74
2022/12/22 16:05:35;;;;;;;3.27;2.00;;;;;;;;;;4993499;28;20188;-73
2022/12/22 16:08:02;;;;;;;2.70;1.83;;;;;;;;;;5001031;28;20237;-75
2022/12/22 16:10:29;;;;;;;4.37;1.80;;;;;;;;;;4996884;28;20190;-74
2022/12/22 16:13:00;;;;;;;4.70;1.70;;;;;;;;;;5008011;28;20207;-73
2022/12/22 16:15:27;;;;;;;4.75;1.80;;;;;;;;;;5008053;28;20433;-73
2022/12/22 16:17:53;;;;;;;2.87;1.80;;;;;;;;;;5003301;28;20670;-73
2022/12/22 16:20:20;;;;;;;3.50;1.60;;;;;;;;;;5007741;28;20225;-74
2022/12/22 16:22:47;;;;;;;3.22;1.98;;;;;;;;;;5015328;28;20446;-73
2022/12/22 16:25:15;;;;;;;6.67;2.33;;;;;;;;;;5016846;28;20271;-72
2022/12/22 16:27:41;;;;;;;6.47;2.60;;;;;;;;;;5013454;28;20663;-74
2022/12/22 16:30:19;;;;;;;7.80;2.80;;;;;;;;;;4999502;28;20543;-74
2022/12/22 16:32:45;;;;;;;5.47;2.57;;;;;;;;;;5004622;28;20222;-73
2022/12/22 16:35:12;;;;;;;5.23;2.70;;;;;;;;;;5015746;28;20560;-73
2022/12/22 16:37:39;;;;;;;4.83;2.53;;;;;;;;;;5001392;28;20195;-72
2022/12/22 16:40:05;;;;;;;4.17;2.60;;;;;;;;;;4999079;28;20195;-73
2022/12/22 16:42:32;;;;;;;6.87;3.00;;;;;;;;;;5003311;28;20220;-72
2022/12/22 16:44:58;;;;;;;6.73;3.27;;;;;;;;;;4999594;28;20685;-73
2022/12/22 16:47:25;;;;;;;5.03;2.53;;;;;;;;;;5002618;28;20190;-72
2022/12/22 16:49:52;;;;;;;6.37;2.70;;;;;;;;;;4999875;28;20778;-71
2022/12/22 16:52:21;;;;;;;7.80;2.77;;;;;;;;;;5001166;28;20233;-73
2022/12/22 16:54:48;;;;;;;5.40;2.50;;;;;;;;;;5002294;28;20266;-73
2022/12/22 16:57:14;;;;;;;9.07;3.03;;;;;;;;;;5002878;28;20565;-73
2022/12/22 16:59:41;;;;;;;12.10;3.47;;;;;;;;;;4998138;28;20184;-73
2022/12/22 17:02:25;;;;;;;10.17;4.40;;;;;;;;;;4998050;28;20215;-73
2022/12/22 17:04:53;;;;;;;13.33;4.37;;;;;;;;;;5001488;28;20187;-74
2022/12/22 17:07:20;;;;;;;13.15;5.45;;;;;;;;;;5002194;28;20837;-73
2022/12/22 17:09:52;;;;;;;14.00;4.57;;;;;;;;;;5016100;28;20190;-72
2022/12/22 17:12:20;;;;;;;14.80;4.63;;;;;;;;;;4996779;28;20199;-72
2022/12/22 17:14:47;;;;;;;20.13;4.80;;;;;;;;;;5009681;28;20186;-72
2022/12/22 17:17:18;;;;;;;16.00;5.03;;;;;;;;;;5004141;28;20195;-73
2022/12/22 17:19:44;;;;;;;18.47;5.13;;;;;;;;;;5004377;28;20691;-73
2022/12/22 17:22:25;;;;;;;20.27;4.83;;;;;;;;;;5007476;28;20573;-73
2022/12/22 17:24:52;;;;;;;19.10;4.60;;;;;;;;;;5007197;28;20278;-74
2022/12/22 17:27:22;;;;;;;24.23;5.60;;;;;;;;;;5022763;28;20282;-73
2022/12/22 17:29:49;;;;;;;19.60;4.73;;;;;;;;;;5015603;28;20587;-73
2022/12/22 17:32:15;;;;;;;26.50;5.23;;;;;;;;;;5005275;28;20216;-72
2022/12/22 17:34:42;;;;;;;28.80;6.93;;;;;;;;;;4999611;28;20241;-73
2022/12/22 17:37:11;;;;;;;26.77;5.83;;;;;;;;;;4998450;28;20833;-72
2022/12/22 17:39:38;;;;;;;26.17;6.17;;;;;;;;;;5019436;28;20655;-72
2022/12/22 17:42:14;;;;;;;24.00;5.53;;;;;;;;;;5004233;28;20579;-72
2022/12/22 17:44:40;;;;;;;22.10;5.37;;;;;;;;;;5017489;28;20186;-72
2022/12/22 17:47:06;;;;;;;21.47;5.37;;;;;;;;;;5013853;28;20211;-72
2022/12/22 17:49:32;;;;;;;24.40;5.40;;;;;;;;;;4998365;28;20203;-72
2022/12/22 17:51:58;;;;;;;27.37;5.53;;;;;;;;;;4995857;28;20902;-72
2022/12/22 17:54:25;;;;;;;23.50;4.93;;;;;;;;;;5017821;28;20183;-72
2022/12/22 17:56:53;;;;;;;22.57;5.67;;;;;;;;;;5008433;28;20175;-73
2022/12/22 17:59:19;;;;;;;26.03;5.53;;;;;;;;;;5018898;28;20187;-72
2022/12/22 18:01:46;;;;;;;23.67;6.17;;;;;;;;;;5009183;28;20236;-72
2022/12/22 18:04:12;;;;;;;27.57;7.70;;;;;;;;;;4990757;28;20500;-74
2022/12/22 18:06:40;;;;;;;22.30;5.27;;;;;;;;;;4995732;28;20185;-74
2022/12/22 18:09:07;;;;;;;24.40;6.10;;;;;;;;;;4997744;28;20187;-73
2022/12/22 18:11:33;;;;;;;23.70;5.80;;;;;;;;;;4992389;28;20207;-72
2022/12/22 18:13:59;;;;;;;21.93;5.17;;;;;;;;;;5017926;28;20188;-73
2022/12/22 18:16:26;;;;;;;26.77;5.30;;;;;;;;;;5024785;28;20244;-73
2022/12/22 18:18:52;;;;;;;24.07;5.43;;;;;;;;;;5018613;28;20265;-73
2022/12/22 18:21:23;;;;;;;24.70;6.40;;;;;;;;;;5006460;28;20310;-73
2022/12/22 18:23:50;;;;;;;24.20;5.47;;;;;;;;;;5018156;28;20179;-75
2022/12/22 18:26:19;;;;;;;26.60;6.30;;;;;;;;;;5006438;28;20226;-74
2022/12/22 18:28:45;;;;;;;21.63;5.07;;;;;;;;;;5005689;28;20596;-75
2022/12/22 18:31:11;;;;;;;22.17;5.97;;;;;;;;;;5006390;28;20238;-75